高雄終端管制區 - 高雄雷達席

METAR RCKH 211330Z VRB02KT 7000 FEW015 SCT040 26/21 Q1016 NOSIG RMK A3002(J)=

站台狀態:Online
最後更新:2018-11-21 21:30:02